createdAt,value
2022-07-28T00:02:05.946Z,100286.69
2022-07-28T00:04:34.046Z,100297.47
2022-07-28T00:07:01.352Z,100293.94
2022-07-28T00:09:28.119Z,100290.56
2022-07-28T00:11:55.124Z,100297.69
2022-07-28T00:14:22.284Z,100297.78
2022-07-28T00:16:48.881Z,100298.00
2022-07-28T00:19:15.596Z,100297.50
2022-07-28T00:21:42.199Z,100288.06
2022-07-28T00:24:09.093Z,100283.94
2022-07-28T00:26:36.142Z,100285.97
2022-07-28T00:29:02.846Z,100280.16
2022-07-28T00:31:29.651Z,100281.09
2022-07-28T00:33:56.381Z,100279.53
2022-07-28T00:36:25.758Z,100283.91
2022-07-28T00:38:52.667Z,100285.81
2022-07-28T00:41:20.701Z,100279.75
2022-07-28T00:43:52.484Z,100289.75
2022-07-28T00:46:21.700Z,100291.56
2022-07-28T00:48:53.787Z,100283.81
2022-07-28T00:51:22.068Z,100277.66
2022-07-28T00:53:48.819Z,100277.03
2022-07-28T00:56:16.174Z,100273.75
2022-07-28T00:58:43.196Z,100271.22
2022-07-28T01:01:11.467Z,100274.94
2022-07-28T01:03:41.550Z,100268.03
2022-07-28T01:06:23.195Z,100264.75
2022-07-28T01:09:10.784Z,100267.38
2022-07-28T01:12:14.427Z,100265.59
2022-07-28T01:14:44.071Z,100268.03
2022-07-28T01:17:36.038Z,100270.81
2022-07-28T01:20:13.612Z,100266.31
2022-07-28T01:22:45.459Z,100272.50
2022-07-28T01:25:23.601Z,100272.50
2022-07-28T01:28:11.871Z,100271.97
2022-07-28T01:30:43.749Z,100268.25
2022-07-28T01:33:33.629Z,100261.16
2022-07-28T01:36:26.462Z,100259.53
2022-07-28T01:38:53.400Z,100251.47
2022-07-28T01:41:23.672Z,100256.06
2022-07-28T01:44:16.757Z,100257.34
2022-07-28T01:46:46.577Z,100243.94
2022-07-28T01:49:14.412Z,100245.75
2022-07-28T01:51:42.873Z,100245.03
2022-07-28T01:54:12.599Z,100246.88
2022-07-28T01:56:41.794Z,100241.69
2022-07-28T01:59:12.167Z,100241.94
2022-07-28T02:01:44.135Z,100243.00
2022-07-28T02:04:12.647Z,100244.69
2022-07-28T02:06:41.937Z,100239.59
2022-07-28T02:09:10.288Z,100242.34
2022-07-28T02:11:40.186Z,100239.81
2022-07-28T02:14:08.448Z,100239.19
2022-07-28T02:16:35.222Z,100240.97
2022-07-28T02:19:02.889Z,100241.13
2022-07-28T02:21:32.424Z,100242.19
2022-07-28T02:24:04.138Z,100242.19
2022-07-28T02:26:36.847Z,100242.28
2022-07-28T02:29:06.509Z,100250.16
2022-07-28T02:31:42.011Z,100241.31
2022-07-28T02:34:11.233Z,100243.88
2022-07-28T02:36:44.999Z,100240.47
2022-07-28T02:39:24.034Z,100245.16
2022-07-28T02:42:01.825Z,100242.59
2022-07-28T02:44:35.928Z,100242.69
2022-07-28T02:47:05.746Z,100237.50
2022-07-28T02:49:35.378Z,100233.25
2022-07-28T02:52:05.079Z,100239.63
2022-07-28T02:54:33.000Z,100236.25
2022-07-28T02:57:00.945Z,100234.66
2022-07-28T02:59:28.895Z,100233.09
2022-07-28T03:01:56.939Z,100241.16
2022-07-28T03:04:43.832Z,100229.88
2022-07-28T03:07:11.297Z,100229.97
2022-07-28T03:09:41.797Z,100227.47
2022-07-28T03:12:09.897Z,100235.44
2022-07-28T03:14:36.817Z,100230.94
2022-07-28T03:17:04.189Z,100238.19
2022-07-28T03:19:30.915Z,100227.78
2022-07-28T03:21:57.675Z,100246.34
2022-07-28T03:24:28.738Z,100248.38
2022-07-28T03:27:07.489Z,100256.63
2022-07-28T03:29:35.680Z,100250.38
2022-07-28T03:32:02.571Z,100252.19
2022-07-28T03:34:29.868Z,100258.56
2022-07-28T03:37:11.981Z,100258.75
2022-07-28T03:39:46.847Z,100263.00
2022-07-28T03:42:17.608Z,100268.31
2022-07-28T03:44:46.839Z,100263.84
2022-07-28T03:47:14.409Z,100269.06
2022-07-28T03:49:40.942Z,100262.69
2022-07-28T03:52:07.568Z,100262.56
2022-07-28T03:54:34.123Z,100264.28
2022-07-28T03:57:01.265Z,100261.53
2022-07-28T03:59:27.837Z,100268.44
2022-07-28T04:01:56.451Z,100269.34
2022-07-28T04:04:23.943Z,100260.47
2022-07-28T04:06:50.485Z,100253.34
2022-07-28T04:09:17.863Z,100260.47
2022-07-28T04:11:44.467Z,100256.00
2022-07-28T04:14:14.755Z,100246.34
2022-07-28T04:16:43.580Z,100249.84
2022-07-28T04:19:10.251Z,100253.44
2022-07-28T04:21:36.768Z,100257.16
2022-07-28T04:24:03.389Z,100250.25
2022-07-28T04:26:29.917Z,100247.72
2022-07-28T04:28:56.447Z,100249.75
2022-07-28T04:31:23.165Z,100249.94
2022-07-28T04:33:50.723Z,100254.41
2022-07-28T04:36:17.633Z,100252.94
2022-07-28T04:38:44.226Z,100254.81
2022-07-28T04:41:10.761Z,100245.16
2022-07-28T04:43:38.752Z,100246.22
2022-07-28T04:46:05.474Z,100251.53
2022-07-28T04:48:32.059Z,100257.91
2022-07-28T04:50:58.677Z,100255.34
2022-07-28T04:53:25.345Z,100254.50
2022-07-28T04:55:53.649Z,100252.78
2022-07-28T04:58:22.611Z,100251.22
2022-07-28T05:00:50.722Z,100249.50
2022-07-28T05:03:18.786Z,100252.28
2022-07-28T05:05:47.459Z,100254.06
2022-07-28T05:08:20.867Z,100245.28
2022-07-28T05:10:48.353Z,100247.06
2022-07-28T05:13:14.951Z,100247.94
2022-07-28T05:15:41.460Z,100245.19
2022-07-28T05:18:08.050Z,100242.38
2022-07-28T05:20:35.563Z,100245.72
2022-07-28T05:23:04.113Z,100256.84
2022-07-28T05:25:30.746Z,100252.06
2022-07-28T05:27:57.347Z,100255.25
2022-07-28T05:30:24.005Z,100252.19
2022-07-28T05:32:51.211Z,100255.38
2022-07-28T05:35:17.973Z,100254.09
2022-07-28T05:37:44.582Z,100265.13
2022-07-28T05:40:14.159Z,100274.47
2022-07-28T05:42:44.894Z,100272.34
2022-07-28T05:45:16.383Z,100272.66
2022-07-28T05:47:54.006Z,100275.94
2022-07-28T05:50:22.536Z,100269.13
2022-07-28T05:52:49.363Z,100277.50
2022-07-28T05:55:16.436Z,100274.41
2022-07-28T05:57:43.557Z,100278.38
2022-07-28T06:00:13.984Z,100272.59
2022-07-28T06:02:42.006Z,100273.88
2022-07-28T06:05:09.062Z,100268.94
2022-07-28T06:07:43.554Z,100269.34
2022-07-28T06:10:12.422Z,100276.88
2022-07-28T06:12:47.451Z,100275.69
2022-07-28T06:15:25.840Z,100276.81
2022-07-28T06:17:55.394Z,100271.78
2022-07-28T06:20:23.773Z,100277.41
2022-07-28T06:22:55.184Z,100266.28
2022-07-28T06:25:24.495Z,100272.84
2022-07-28T06:27:56.337Z,100280.25
2022-07-28T06:30:24.133Z,100277.97
2022-07-28T06:32:51.652Z,100277.38
2022-07-28T06:35:19.249Z,100271.72
2022-07-28T06:37:48.068Z,100268.63
2022-07-28T06:40:16.077Z,100278.81
2022-07-28T06:42:43.705Z,100277.50
2022-07-28T06:45:20.671Z,100277.97
2022-07-28T06:47:52.654Z,100282.81
2022-07-28T06:50:26.179Z,100285.97
2022-07-28T06:52:55.354Z,100283.81
2022-07-28T06:55:22.048Z,100287.06
2022-07-28T06:57:49.299Z,100288.66
2022-07-28T07:00:16.611Z,100296.41
2022-07-28T07:02:43.645Z,100292.75
2022-07-28T07:05:12.098Z,100284.56
2022-07-28T07:07:42.990Z,100286.94
2022-07-28T07:10:10.863Z,100276.06
2022-07-28T07:12:38.095Z,100283.81
2022-07-28T07:15:05.655Z,100283.59
2022-07-28T07:17:32.547Z,100272.69
2022-07-28T07:19:59.136Z,100282.13
2022-07-28T07:22:25.861Z,100282.59
2022-07-28T07:24:56.701Z,100281.38
2022-07-28T07:27:23.848Z,100276.69
2022-07-28T07:29:50.409Z,100278.13
2022-07-28T07:32:16.958Z,100278.50
2022-07-28T07:34:43.522Z,100270.97
2022-07-28T07:37:13.730Z,100275.69
2022-07-28T07:39:41.136Z,100280.28
2022-07-28T07:42:07.838Z,100277.97
2022-07-28T07:44:34.642Z,100267.66
2022-07-28T07:47:01.377Z,100270.66
2022-07-28T07:49:45.154Z,100260.22
2022-07-28T07:52:13.620Z,100259.59
2022-07-28T07:54:40.324Z,100268.75
2022-07-28T07:57:06.934Z,100269.81
2022-07-28T07:59:33.413Z,100263.97
2022-07-28T08:02:00.559Z,100263.19
2022-07-28T08:04:27.215Z,100260.72
2022-07-28T08:06:55.467Z,100258.16
2022-07-28T08:09:23.157Z,100255.69
2022-07-28T08:11:49.779Z,100248.72
2022-07-28T08:14:17.613Z,100256.88
2022-07-28T08:16:44.765Z,100259.03
2022-07-28T08:19:12.267Z,100261.88
2022-07-28T08:21:39.548Z,100264.75
2022-07-28T08:24:06.612Z,100264.06
2022-07-28T08:26:33.145Z,100255.38
2022-07-28T08:28:59.708Z,100252.03
2022-07-28T08:31:26.637Z,100261.06
2022-07-28T08:33:54.760Z,100256.88
2022-07-28T08:36:23.063Z,100254.53
2022-07-28T08:38:50.091Z,100255.81
2022-07-28T08:41:22.801Z,100251.56
2022-07-28T08:43:52.321Z,100252.72
2022-07-28T08:46:21.150Z,100250.22
2022-07-28T08:48:48.610Z,100243.16
2022-07-28T08:51:15.710Z,100247.69
2022-07-28T08:53:43.663Z,100240.63
2022-07-28T08:56:14.684Z,100243.72
2022-07-28T08:58:42.104Z,100247.41
2022-07-28T09:01:10.899Z,100245.81
2022-07-28T09:03:39.128Z,100235.41
2022-07-28T09:06:06.339Z,100239.22
2022-07-28T09:08:33.387Z,100236.69
2022-07-28T09:11:00.089Z,100234.13
2022-07-28T09:13:26.752Z,100231.72
2022-07-28T09:15:53.516Z,100235.38
2022-07-28T09:18:21.359Z,100234.47
2022-07-28T09:20:47.961Z,100226.56
2022-07-28T09:23:42.900Z,100225.66
2022-07-28T09:26:12.627Z,100227.59
2022-07-28T09:28:54.382Z,100223.34
2022-07-28T09:31:24.057Z,100217.81
2022-07-28T09:33:55.001Z,100222.56
2022-07-28T09:36:21.931Z,100224.50
2022-07-28T09:38:48.645Z,100226.56
2022-07-28T09:41:18.903Z,100221.47
2022-07-28T09:43:47.030Z,100223.22
2022-07-28T09:46:23.542Z,100221.09
2022-07-28T09:48:50.538Z,100213.97
2022-07-28T09:51:33.476Z,100223.06
2022-07-28T09:54:26.265Z,100216.09
2022-07-28T09:56:52.886Z,100219.13
2022-07-28T09:59:19.548Z,100216.81
2022-07-28T10:01:52.506Z,100211.81
2022-07-28T10:04:51.008Z,100209.50
2022-07-28T10:07:18.161Z,100212.44
2022-07-28T10:09:58.347Z,100208.44
2022-07-28T10:12:30.747Z,100210.03
2022-07-28T10:14:59.877Z,100208.09
2022-07-28T10:17:33.282Z,100211.81
2022-07-28T10:20:02.079Z,100212.56
2022-07-28T10:22:34.115Z,100210.94
2022-07-28T10:25:12.846Z,100210.66
2022-07-28T10:27:44.516Z,100205.66
2022-07-28T10:30:12.455Z,100209.75
2022-07-28T10:32:42.018Z,100199.84
2022-07-28T10:35:14.268Z,100204.25
2022-07-28T10:37:52.621Z,100190.84
2022-07-28T10:40:23.218Z,100196.91
2022-07-28T10:42:50.091Z,100196.78
2022-07-28T10:45:17.174Z,100192.22
2022-07-28T10:47:45.172Z,100195.25
2022-07-28T10:50:11.777Z,100198.28
2022-07-28T10:52:50.439Z,100200.63
2022-07-28T10:55:31.769Z,100189.47
2022-07-28T10:58:17.318Z,100188.19
2022-07-28T11:00:56.069Z,100197.44
2022-07-28T11:03:38.465Z,100190.34
2022-07-28T11:06:40.204Z,100189.63
2022-07-28T11:09:15.998Z,100180.16
2022-07-28T11:11:45.237Z,100171.75
2022-07-28T11:14:39.473Z,100178.22
2022-07-28T11:17:10.583Z,100174.03
2022-07-28T11:22:34.246Z,100168.97
2022-07-28T11:25:21.023Z,100159.66
2022-07-28T11:27:49.914Z,100166.69
2022-07-28T11:30:16.463Z,100162.41
2022-07-28T11:32:53.431Z,100154.91
2022-07-28T11:35:29.615Z,100142.81
2022-07-28T11:38:02.281Z,100141.50
2022-07-28T11:40:30.013Z,100140.47
2022-07-28T11:43:35.266Z,100141.56
2022-07-28T11:46:04.779Z,100132.88
2022-07-28T11:48:37.920Z,100132.50
2022-07-28T11:51:04.553Z,100123.94
2022-07-28T11:53:39.422Z,100136.63
2022-07-28T11:56:10.935Z,100139.16
2022-07-28T11:58:38.673Z,100143.91
2022-07-28T12:01:17.791Z,100131.97
2022-07-28T12:03:55.442Z,100130.16
2022-07-28T12:06:28.906Z,100127.88
2022-07-28T12:09:04.868Z,100128.03
2022-07-28T12:11:33.728Z,100121.34
2022-07-28T12:14:00.916Z,100124.22
2022-07-28T12:16:29.353Z,100124.75
2022-07-28T12:18:56.710Z,100119.53
2022-07-28T12:21:47.613Z,100123.84
2022-07-28T12:24:28.906Z,100116.81
2022-07-28T12:26:57.751Z,100109.63
2022-07-28T12:29:35.449Z,100107.06
2022-07-28T12:32:09.214Z,100101.16
2022-07-28T12:34:39.843Z,100101.56
2022-07-28T12:37:09.989Z,100094.19
2022-07-28T12:39:39.855Z,100086.00
2022-07-28T12:42:09.684Z,100083.72
2022-07-28T12:44:41.397Z,100089.16
2022-07-28T12:47:12.054Z,100091.59
2022-07-28T12:49:40.722Z,100079.94
2022-07-28T12:52:25.187Z,100091.78
2022-07-28T12:54:55.803Z,100092.44
2022-07-28T12:57:51.562Z,100083.56
2022-07-28T13:00:31.442Z,100085.47
2022-07-28T13:02:59.914Z,100092.78
2022-07-28T13:05:56.881Z,100088.72
2022-07-28T13:08:24.659Z,100079.59
2022-07-28T13:10:56.672Z,100076.84
2022-07-28T13:13:24.331Z,100089.28
2022-07-28T13:16:16.662Z,100082.75
2022-07-28T13:18:45.374Z,100083.38
2022-07-28T13:21:12.228Z,100082.94
2022-07-28T13:23:39.462Z,100079.22
2022-07-28T13:26:07.325Z,100075.25
2022-07-28T13:28:34.360Z,100070.47
2022-07-28T13:31:00.908Z,100072.25
2022-07-28T13:33:28.481Z,100066.63
2022-07-28T13:35:55.510Z,100069.28
2022-07-28T13:38:22.089Z,100066.25
2022-07-28T13:40:48.588Z,100066.09
2022-07-28T13:43:15.176Z,100056.94
2022-07-28T13:45:42.023Z,100057.50
2022-07-28T13:48:09.288Z,100053.44
2022-07-28T13:50:35.829Z,100048.16
2022-07-28T13:53:02.408Z,100050.94
2022-07-28T13:55:29.074Z,100052.34
2022-07-28T13:57:56.412Z,100047.66
2022-07-28T14:00:24.254Z,100055.31
2022-07-28T14:02:51.447Z,100052.41
2022-07-28T14:05:18.320Z,100053.34
2022-07-28T14:07:48.847Z,100048.47
2022-07-28T14:10:17.269Z,100058.44
2022-07-28T14:12:46.014Z,100043.72
2022-07-28T14:15:13.198Z,100039.13
2022-07-28T14:17:43.208Z,100035.34
2022-07-28T14:20:12.109Z,100034.63
2022-07-28T14:22:38.728Z,100039.88
2022-07-28T14:25:05.677Z,100025.56
2022-07-28T14:27:32.700Z,100031.78
2022-07-28T14:29:59.255Z,100035.81
2022-07-28T14:32:30.242Z,100034.09
2022-07-28T14:34:56.959Z,100037.31
2022-07-28T14:37:23.664Z,100031.19
2022-07-28T14:39:50.258Z,100028.09
2022-07-28T14:42:16.741Z,100033.50
2022-07-28T14:44:43.325Z,100027.06
2022-07-28T14:47:09.987Z,100027.00
2022-07-28T14:49:36.606Z,100027.16
2022-07-28T14:52:03.985Z,100020.81
2022-07-28T14:54:30.613Z,100011.19
2022-07-28T14:56:57.244Z,100022.16
2022-07-28T14:59:23.867Z,100030.06
2022-07-28T15:01:50.590Z,100023.66
2022-07-28T15:04:18.454Z,100022.56
2022-07-28T15:06:45.506Z,100016.00
2022-07-28T15:09:12.068Z,100019.56
2022-07-28T15:11:39.795Z,100016.81
2022-07-28T15:14:06.352Z,100010.59
2022-07-28T15:16:33.204Z,100001.41
2022-07-28T15:19:00.026Z,99995.53
2022-07-28T15:21:26.587Z,99990.53
2022-07-28T15:23:53.609Z,99998.50
2022-07-28T15:26:20.356Z,100003.50
2022-07-28T15:28:48.719Z,99998.66
2022-07-28T15:31:17.148Z,99993.34
2022-07-28T15:33:48.497Z,99989.41
2022-07-28T15:36:25.470Z,99991.81
2022-07-28T15:38:53.103Z,99987.56
2022-07-28T15:41:20.178Z,99990.38
2022-07-28T15:43:47.708Z,99982.66
2022-07-28T15:46:14.842Z,99980.09
2022-07-28T15:48:43.325Z,99975.22
2022-07-28T15:51:10.266Z,99970.59
2022-07-28T15:53:37.199Z,99977.09
2022-07-28T15:56:04.673Z,99974.28
2022-07-28T15:58:31.739Z,99970.72
2022-07-28T16:00:59.391Z,99972.19
2022-07-28T16:03:28.628Z,99970.50
2022-07-28T16:05:55.261Z,99970.63
2022-07-28T16:08:22.430Z,99968.88
2022-07-28T16:10:49.759Z,99964.13
2022-07-28T16:13:22.749Z,99962.97
2022-07-28T16:16:02.992Z,99959.94
2022-07-28T16:18:29.611Z,99960.06
2022-07-28T16:20:56.222Z,99961.28
2022-07-28T16:23:22.871Z,99963.28
2022-07-28T16:25:49.489Z,99965.53
2022-07-28T16:28:16.294Z,99961.44
2022-07-28T16:30:42.947Z,99964.75
2022-07-28T16:33:09.550Z,99966.34
2022-07-28T16:35:36.093Z,99961.28
2022-07-28T16:38:05.340Z,99961.09
2022-07-28T16:40:32.909Z,99965.72
2022-07-28T16:43:03.449Z,99963.75
2022-07-28T16:45:31.550Z,99958.28
2022-07-28T16:47:59.010Z,99959.78
2022-07-28T16:50:25.987Z,99960.03
2022-07-28T16:52:54.149Z,99956.81
2022-07-28T16:55:23.632Z,99958.44
2022-07-28T16:57:53.690Z,99961.38
2022-07-28T17:00:21.047Z,99963.22
2022-07-28T17:02:47.602Z,99964.03
2022-07-28T17:05:14.291Z,99957.22
2022-07-28T17:07:45.862Z,99958.94
2022-07-28T17:10:15.296Z,99957.69
2022-07-28T17:12:49.830Z,99954.28
2022-07-28T17:15:22.435Z,99956.28
2022-07-28T17:17:51.160Z,99964.53
2022-07-28T17:20:17.908Z,99962.50
2022-07-28T17:22:45.162Z,99966.47
2022-07-28T17:25:42.966Z,99956.06
2022-07-28T17:27:58.664Z,99959.81
2022-07-28T17:30:25.253Z,99959.97
2022-07-28T17:32:52.802Z,99962.66
2022-07-28T17:35:34.289Z,99961.31
2022-07-28T17:38:03.038Z,99959.38
2022-07-28T17:40:29.589Z,99964.31
2022-07-28T17:42:56.224Z,99962.13
2022-07-28T17:45:24.103Z,99957.00
2022-07-28T17:47:50.896Z,99960.66
2022-07-28T17:50:17.623Z,99964.09
2022-07-28T17:52:44.997Z,99954.03
2022-07-28T17:55:31.044Z,99957.91
2022-07-28T17:58:09.352Z,99960.66
2022-07-28T18:00:36.786Z,99966.63
2022-07-28T18:03:03.551Z,99961.34
2022-07-28T18:05:40.574Z,99963.56
2022-07-28T18:08:09.994Z,99953.91
2022-07-28T18:10:38.058Z,99947.97
2022-07-28T18:13:05.794Z,99954.53
2022-07-28T18:15:35.300Z,99959.19
2022-07-28T18:18:03.610Z,99953.41
2022-07-28T18:20:31.397Z,99959.78
2022-07-28T18:22:58.679Z,99951.97
2022-07-28T18:25:31.626Z,99952.47
2022-07-28T18:27:58.576Z,99952.38
2022-07-28T18:30:26.046Z,99954.97
2022-07-28T18:32:53.539Z,99945.25
2022-07-28T18:35:21.101Z,99954.28
2022-07-28T18:37:48.785Z,99954.53
2022-07-28T18:40:17.554Z,99951.94
2022-07-28T18:42:45.179Z,99947.47
2022-07-28T18:45:13.526Z,99951.09
2022-07-28T18:47:47.720Z,99946.63
2022-07-28T18:50:30.452Z,99946.50
2022-07-28T18:52:58.825Z,99954.50
2022-07-28T18:55:25.581Z,99947.09
2022-07-28T18:57:52.355Z,99953.22
2022-07-28T19:00:19.233Z,99947.72
2022-07-28T19:02:45.967Z,99952.78
2022-07-28T19:05:12.547Z,99953.34
2022-07-28T19:07:39.193Z,99953.88
2022-07-28T19:10:06.707Z,99958.09
2022-07-28T19:12:34.283Z,99947.22
2022-07-28T19:15:01.701Z,99955.84
2022-07-28T19:17:28.289Z,99955.72
2022-07-28T19:19:59.434Z,99953.72
2022-07-28T19:22:26.074Z,99954.44
2022-07-28T19:24:52.859Z,99963.22
2022-07-28T19:27:20.249Z,99971.97
2022-07-28T19:29:47.294Z,99969.13
2022-07-28T19:32:13.980Z,99974.22
2022-07-28T19:34:42.991Z,99974.06
2022-07-28T19:37:17.121Z,99969.56
2022-07-28T19:39:45.886Z,99982.69
2022-07-28T19:42:12.871Z,99971.94
2022-07-28T19:44:39.717Z,99978.88
2022-07-28T19:47:06.353Z,99985.09
2022-07-28T19:49:32.964Z,99989.50
2022-07-28T19:51:59.668Z,99982.25
2022-07-28T19:54:26.657Z,99993.69
2022-07-28T19:56:53.943Z,99989.00
2022-07-28T19:59:22.334Z,99985.97
2022-07-28T20:01:50.755Z,99993.72
2022-07-28T20:04:18.339Z,99990.53
2022-07-28T20:06:45.111Z,99991.34
2022-07-28T20:09:12.693Z,99990.19
2022-07-28T20:11:39.603Z,99994.38
2022-07-28T20:14:06.333Z,99996.06
2022-07-28T20:16:33.059Z,100000.44
2022-07-28T20:19:00.349Z,99997.53
2022-07-28T20:21:27.010Z,99998.22
2022-07-28T20:23:57.298Z,100005.06
2022-07-28T20:26:27.593Z,100005.56
2022-07-28T20:28:56.483Z,100006.03
2022-07-28T20:31:23.030Z,100007.22
2022-07-28T20:33:50.217Z,100006.88
2022-07-28T20:36:16.990Z,99998.63
2022-07-28T20:38:45.194Z,99998.28
2022-07-28T20:41:12.203Z,100008.50
2022-07-28T20:43:38.831Z,100008.00
2022-07-28T20:46:05.589Z,100011.16
2022-07-28T20:48:32.298Z,100009.13
2022-07-28T20:50:58.809Z,100013.97
2022-07-28T20:53:25.329Z,100016.97
2022-07-28T20:55:51.873Z,100019.97
2022-07-28T20:58:18.471Z,100017.59
2022-07-28T21:00:45.246Z,100024.13
2022-07-28T21:03:12.186Z,100026.31
2022-07-28T21:05:38.755Z,100020.28
2022-07-28T21:08:09.283Z,100023.94
2022-07-28T21:10:42.676Z,100023.28
2022-07-28T21:13:09.276Z,100026.97
2022-07-28T21:15:35.931Z,100031.63
2022-07-28T21:18:02.553Z,100041.81
2022-07-28T21:20:29.144Z,100037.63
2022-07-28T21:22:55.683Z,100037.94
2022-07-28T21:25:22.861Z,100041.06
2022-07-28T21:28:07.828Z,100040.56
2022-07-28T21:30:34.346Z,100033.97
2022-07-28T21:33:01.009Z,100035.13
2022-07-28T21:35:27.670Z,100036.59
2022-07-28T21:37:54.231Z,100029.88
2022-07-28T21:40:20.758Z,100028.34
2022-07-28T21:42:47.630Z,100031.50
2022-07-28T21:45:14.244Z,100031.97
2022-07-28T21:47:41.349Z,100040.31
2022-07-28T21:50:08.367Z,100036.25
2022-07-28T21:52:37.085Z,100041.09
2022-07-28T21:55:06.274Z,100036.22
2022-07-28T21:57:33.016Z,100038.34
2022-07-28T21:59:59.540Z,100044.03
2022-07-28T22:02:26.592Z,100044.50
2022-07-28T22:04:53.223Z,100048.31
2022-07-28T22:07:19.838Z,100050.47
2022-07-28T22:09:46.387Z,100048.22
2022-07-28T22:12:13.075Z,100052.19
2022-07-28T22:14:39.619Z,100049.94
2022-07-28T22:17:06.230Z,100042.41
2022-07-28T22:19:32.767Z,100044.69
2022-07-28T22:21:59.391Z,100043.47
2022-07-28T22:24:25.932Z,100044.03
2022-07-28T22:26:52.577Z,100037.31
2022-07-28T22:29:19.324Z,100046.66
2022-07-28T22:31:46.104Z,100044.44
2022-07-28T22:34:12.835Z,100047.53
2022-07-28T22:36:39.557Z,100056.03
2022-07-28T22:39:06.178Z,100054.50
2022-07-28T22:41:32.938Z,100049.44
2022-07-28T22:43:59.548Z,100047.06
2022-07-28T22:46:26.117Z,100047.38
2022-07-28T22:48:52.857Z,100046.81
2022-07-28T22:51:19.598Z,100046.28
2022-07-28T22:53:46.165Z,100047.41
2022-07-28T22:56:13.069Z,100044.16
2022-07-28T22:58:40.149Z,100048.84
2022-07-28T23:01:07.093Z,100037.56
2022-07-28T23:03:33.805Z,100048.72
2022-07-28T23:06:00.962Z,100042.97
2022-07-28T23:08:28.223Z,100048.59
2022-07-28T23:10:55.226Z,100045.53
2022-07-28T23:13:22.044Z,100044.00
2022-07-28T23:15:48.700Z,100041.47
2022-07-28T23:18:15.245Z,100039.06
2022-07-28T23:20:43.389Z,100040.06
2022-07-28T23:23:12.054Z,100042.06
2022-07-28T23:25:42.888Z,100035.13
2022-07-28T23:28:10.363Z,100029.97
2022-07-28T23:30:37.031Z,100028.25
2022-07-28T23:33:04.648Z,100032.06
2022-07-28T23:35:31.338Z,100027.84
2022-07-28T23:37:57.905Z,100026.16
2022-07-28T23:40:24.529Z,100029.13
2022-07-28T23:42:51.030Z,100030.97
2022-07-28T23:45:17.558Z,100029.28
2022-07-28T23:47:44.084Z,100027.59
2022-07-28T23:50:10.821Z,100027.72
2022-07-28T23:52:37.455Z,100018.03
2022-07-28T23:55:05.153Z,100015.50
2022-07-28T23:57:31.871Z,100020.84
